createdAt,value
2018-02-02T00:00:00.940Z,28.30
2018-02-02T00:02:29.882Z,26.33
2018-02-02T00:04:59.119Z,29.67
2018-02-02T00:07:29.827Z,25.67
2018-02-02T00:09:59.779Z,27.23
2018-02-02T00:12:29.743Z,28.63
2018-02-02T00:15:01.929Z,28.10
2018-02-02T00:17:31.160Z,25.53
2018-02-02T00:20:00.273Z,22.57
2018-02-02T00:22:29.243Z,27.07
2018-02-02T00:24:59.443Z,24.27
2018-02-02T00:27:28.950Z,25.87
2018-02-02T00:30:04.392Z,23.47
2018-02-02T00:32:33.938Z,25.93
2018-02-02T00:35:03.915Z,25.77
2018-02-02T00:37:34.734Z,26.13
2018-02-02T00:40:04.811Z,22.50
2018-02-02T00:42:34.203Z,21.33
2018-02-02T00:45:04.757Z,21.30
2018-02-02T00:47:33.588Z,27.70
2018-02-02T00:50:02.588Z,23.50
2018-02-02T00:52:33.057Z,23.77
2018-02-02T00:55:02.009Z,21.00
2018-02-02T00:57:30.990Z,23.37
2018-02-02T00:59:59.985Z,22.67
2018-02-02T01:02:29.078Z,22.83
2018-02-02T01:04:58.304Z,23.63
2018-02-02T01:07:29.313Z,24.63
2018-02-02T01:09:59.236Z,21.37
2018-02-02T01:12:29.151Z,21.37
2018-02-02T01:14:59.200Z,22.20
2018-02-02T01:17:29.218Z,24.43
2018-02-02T01:19:58.211Z,27.97
2018-02-02T01:22:28.857Z,29.00
2018-02-02T01:24:57.937Z,26.20
2018-02-02T01:27:26.938Z,30.83
2018-02-02T01:29:56.706Z,29.20
2018-02-02T01:32:41.065Z,27.13
2018-02-02T01:35:11.786Z,26.47
2018-02-02T01:37:41.535Z,26.40
2018-02-02T01:40:18.415Z,26.37
2018-02-02T01:42:47.480Z,25.50
2018-02-02T01:45:17.911Z,23.10
2018-02-02T01:47:49.538Z,26.10
2018-02-02T01:50:18.669Z,27.90
2018-02-02T01:52:47.788Z,26.40
2018-02-02T01:55:22.184Z,25.20
2018-02-02T01:57:52.328Z,31.07
2018-02-02T02:00:23.651Z,29.87
2018-02-02T02:02:54.182Z,25.80
2018-02-02T02:05:23.783Z,29.77
2018-02-02T02:07:57.573Z,30.03
2018-02-02T02:10:26.629Z,38.33
2018-02-02T02:12:59.623Z,41.13
2018-02-02T02:15:28.663Z,41.50
2018-02-02T02:17:58.003Z,41.53
2018-02-02T02:20:28.149Z,58.90
2018-02-02T02:22:57.978Z,45.40
2018-02-02T02:25:27.228Z,46.90
2018-02-02T02:27:57.175Z,50.93
2018-02-02T02:30:27.055Z,44.30
2018-02-02T02:32:56.012Z,45.40
2018-02-02T02:35:28.217Z,44.57
2018-02-02T02:37:58.194Z,46.87
2018-02-02T02:40:27.131Z,43.97
2018-02-02T02:42:57.724Z,51.40
2018-02-02T02:45:28.590Z,40.20
2018-02-02T02:47:57.581Z,44.33
2018-02-02T02:50:30.160Z,44.20
2018-02-02T02:53:00.386Z,44.97
2018-02-02T02:55:31.494Z,47.30
2018-02-02T02:58:00.635Z,44.40
2018-02-02T03:00:31.126Z,42.37
2018-02-02T03:03:00.450Z,40.50
2018-02-02T03:05:29.419Z,51.10
2018-02-02T03:08:00.389Z,44.63
2018-02-02T03:10:29.585Z,42.17
2018-02-02T03:12:58.781Z,49.63
2018-02-02T03:15:35.436Z,40.90
2018-02-02T03:18:04.515Z,41.53
2018-02-02T03:20:33.615Z,38.13
2018-02-02T03:23:03.566Z,41.27
2018-02-02T03:25:32.761Z,33.80
2018-02-02T03:28:02.670Z,45.93
2018-02-02T03:30:31.953Z,41.17
2018-02-02T03:33:01.047Z,38.30
2018-02-02T03:35:30.247Z,43.53
2018-02-02T03:38:01.827Z,36.57
2018-02-02T03:40:31.813Z,39.37
2018-02-02T03:43:04.623Z,38.60
2018-02-02T03:45:33.688Z,43.80
2018-02-02T03:48:02.888Z,40.70
2018-02-02T03:50:33.682Z,48.70
2018-02-02T03:53:10.398Z,42.40
2018-02-02T03:55:40.657Z,34.83
2018-02-02T03:58:13.798Z,34.10
2018-02-02T04:00:43.652Z,32.40
2018-02-02T04:03:14.615Z,21.20
2018-02-02T04:05:43.592Z,27.57
2018-02-02T04:08:13.435Z,24.90
2018-02-02T04:10:42.451Z,23.00
2018-02-02T04:13:12.742Z,23.30
2018-02-02T04:15:44.405Z,23.80
2018-02-02T04:18:14.283Z,21.20
2018-02-02T04:20:43.356Z,18.00
2018-02-02T04:23:12.712Z,18.03
2018-02-02T04:25:41.860Z,19.87
2018-02-02T04:28:11.639Z,22.97
2018-02-02T04:30:42.713Z,25.33
2018-02-02T04:33:12.664Z,21.20
2018-02-02T04:35:42.481Z,20.83
2018-02-02T04:38:14.160Z,26.80
2018-02-02T04:40:45.758Z,27.03
2018-02-02T04:43:16.979Z,22.60
2018-02-02T04:45:46.915Z,16.80
2018-02-02T04:48:16.218Z,20.70
2018-02-02T04:50:46.380Z,18.53
2018-02-02T04:53:15.353Z,21.53
2018-02-02T04:55:44.453Z,19.80
2018-02-02T04:58:14.298Z,17.27
2018-02-02T05:00:43.516Z,27.10
2018-02-02T05:06:14.873Z,21.70
2018-02-02T05:08:45.517Z,36.50
2018-02-02T05:11:14.307Z,22.80
2018-02-02T05:13:43.088Z,20.10
2018-02-02T05:16:12.912Z,18.83
2018-02-02T05:18:41.823Z,18.77
2018-02-02T05:21:10.731Z,16.87
2018-02-02T05:23:39.611Z,28.77
2018-02-02T05:26:08.482Z,17.53
2018-02-02T05:28:37.254Z,16.60
2018-02-02T05:31:06.156Z,19.33
2018-02-02T05:33:34.997Z,18.73
2018-02-02T05:36:03.887Z,20.03
2018-02-02T05:38:34.361Z,23.90
2018-02-02T05:41:04.160Z,18.87
2018-02-02T05:43:33.074Z,21.00
2018-02-02T05:46:02.784Z,25.27
2018-02-02T05:48:31.594Z,23.13
2018-02-02T05:51:00.459Z,22.07
2018-02-02T05:53:32.961Z,27.43
2018-02-02T05:56:02.012Z,21.30
2018-02-02T05:58:31.085Z,26.33
2018-02-02T06:01:01.693Z,27.37
2018-02-02T06:03:30.716Z,28.40
2018-02-02T06:06:00.424Z,31.90
2018-02-02T06:08:31.260Z,29.30
2018-02-02T06:11:01.583Z,32.13
2018-02-02T06:13:30.660Z,24.77
2018-02-02T06:16:00.598Z,29.57
2018-02-02T06:18:31.329Z,24.20
2018-02-02T06:21:00.586Z,24.30
2018-02-02T06:23:29.623Z,24.70
2018-02-02T06:25:58.703Z,20.03
2018-02-02T06:28:27.997Z,22.53
2018-02-02T06:31:00.733Z,27.53
2018-02-02T06:33:29.838Z,25.90
2018-02-02T06:35:58.892Z,41.73
2018-02-02T06:38:30.656Z,23.93
2018-02-02T06:41:00.267Z,26.07
2018-02-02T06:43:29.465Z,28.37
2018-02-02T06:46:01.085Z,21.37
2018-02-02T06:48:30.146Z,27.90
2018-02-02T06:51:02.835Z,26.43
2018-02-02T06:53:31.822Z,26.17
2018-02-02T06:56:00.885Z,30.00
2018-02-02T06:58:36.430Z,23.33
2018-02-02T07:01:06.500Z,26.50
2018-02-02T07:03:35.682Z,21.33
2018-02-02T07:06:05.460Z,25.20
2018-02-02T07:08:35.101Z,25.43
2018-02-02T07:11:04.199Z,23.43
2018-02-02T07:13:34.286Z,24.50
2018-02-02T07:16:04.025Z,18.90
2018-02-02T07:18:34.761Z,20.93
2018-02-02T07:21:06.248Z,19.50
2018-02-02T07:23:35.379Z,18.13
2018-02-02T07:26:05.339Z,22.57
2018-02-02T07:28:35.168Z,19.60
2018-02-02T07:31:04.013Z,20.60
2018-02-02T07:33:34.259Z,24.97
2018-02-02T07:36:03.529Z,22.03
2018-02-02T07:38:32.368Z,18.47
2018-02-02T07:41:01.183Z,18.10
2018-02-02T07:43:31.777Z,17.73
2018-02-02T07:46:00.632Z,18.70
2018-02-02T07:48:29.472Z,19.87
2018-02-02T07:50:58.417Z,18.37
2018-02-02T07:53:27.291Z,20.37
2018-02-02T07:55:56.183Z,20.13
2018-02-02T07:58:25.506Z,20.53
2018-02-02T08:01:00.135Z,27.97
2018-02-02T08:03:30.200Z,24.50
2018-02-02T08:06:02.627Z,23.23
2018-02-02T08:08:35.033Z,24.57
2018-02-02T08:11:04.435Z,21.37
2018-02-02T08:13:33.492Z,18.43
2018-02-02T08:16:03.445Z,23.73
2018-02-02T08:18:32.335Z,20.07
2018-02-02T08:21:01.837Z,22.40
2018-02-02T08:23:32.339Z,18.63
2018-02-02T08:26:01.234Z,21.07
2018-02-02T08:28:31.132Z,25.70
2018-02-02T08:31:00.145Z,23.90
2018-02-02T08:33:29.990Z,22.47
2018-02-02T08:36:00.030Z,20.47
2018-02-02T08:38:29.970Z,26.90
2018-02-02T08:40:58.956Z,21.70
2018-02-02T08:43:31.362Z,20.23
2018-02-02T08:46:01.824Z,23.00
2018-02-02T08:48:31.738Z,18.70
2018-02-02T08:51:02.574Z,24.53
2018-02-02T08:53:32.577Z,22.13
2018-02-02T08:56:02.820Z,21.27
2018-02-02T08:58:31.877Z,22.83
2018-02-02T09:01:06.603Z,33.73
2018-02-02T09:03:36.627Z,17.70
2018-02-02T09:06:07.682Z,20.53
2018-02-02T09:08:37.304Z,27.13
2018-02-02T09:11:07.086Z,25.37
2018-02-02T09:13:36.181Z,22.80
2018-02-02T09:16:06.453Z,16.47
2018-02-02T09:18:37.068Z,30.10
2018-02-02T09:21:06.064Z,53.63
2018-02-02T09:23:38.532Z,37.10
2018-02-02T09:26:08.856Z,28.40
2018-02-02T09:28:38.747Z,23.40
2018-02-02T09:31:12.655Z,32.33
2018-02-02T09:33:41.756Z,24.70
2018-02-02T09:36:11.806Z,29.17
2018-02-02T09:38:41.894Z,27.97
2018-02-02T09:41:11.749Z,28.13
2018-02-02T09:43:41.567Z,25.97
2018-02-02T09:46:11.685Z,19.53
2018-02-02T09:48:41.535Z,22.23
2018-02-02T09:51:10.444Z,21.60
2018-02-02T09:53:39.541Z,19.13
2018-02-02T09:56:09.764Z,21.57
2018-02-02T09:58:39.611Z,21.10
2018-02-02T10:01:10.453Z,21.90
2018-02-02T10:03:40.305Z,24.07
2018-02-02T10:06:12.409Z,17.70
2018-02-02T10:08:42.547Z,21.20
2018-02-02T10:11:11.644Z,16.37
2018-02-02T10:13:43.475Z,18.23
2018-02-02T10:16:12.539Z,19.83
2018-02-02T10:18:41.564Z,18.23
2018-02-02T10:21:11.067Z,18.40
2018-02-02T10:23:40.812Z,16.67
2018-02-02T10:26:10.903Z,20.30
2018-02-02T10:28:40.813Z,24.00
2018-02-02T10:31:10.012Z,18.10
2018-02-02T10:33:39.037Z,16.63
2018-02-02T10:36:08.054Z,29.60
2018-02-02T10:38:37.623Z,36.93
2018-02-02T10:41:06.610Z,21.37
2018-02-02T10:43:36.552Z,21.00
2018-02-02T10:46:06.326Z,15.60
2018-02-02T10:48:35.431Z,18.57
2018-02-02T10:51:06.072Z,19.40
2018-02-02T10:53:35.438Z,20.93
2018-02-02T10:56:04.478Z,16.90
2018-02-02T10:58:35.096Z,15.17
2018-02-02T11:01:12.276Z,22.47
2018-02-02T11:03:46.666Z,14.70
2018-02-02T11:06:16.644Z,16.33
2018-02-02T11:08:46.699Z,14.10
2018-02-02T11:11:16.005Z,16.80
2018-02-02T11:13:45.234Z,13.53
2018-02-02T11:16:16.674Z,19.63
2018-02-02T11:18:48.135Z,14.70
2018-02-02T11:21:19.079Z,28.13
2018-02-02T11:23:48.978Z,11.83
2018-02-02T11:26:18.060Z,12.03
2018-02-02T11:28:49.723Z,12.90
2018-02-02T11:31:18.632Z,16.83
2018-02-02T11:33:47.527Z,15.03
2018-02-02T11:36:19.487Z,15.70
2018-02-02T11:38:49.512Z,12.80
2018-02-02T11:41:18.529Z,11.23
2018-02-02T11:43:48.410Z,16.90
2018-02-02T11:46:18.439Z,16.07
2018-02-02T11:48:48.228Z,17.50
2018-02-02T11:51:17.103Z,19.73
2018-02-02T11:53:45.906Z,13.60
2018-02-02T11:56:14.728Z,15.00
2018-02-02T11:58:44.473Z,15.57
2018-02-02T12:01:13.380Z,17.73
2018-02-02T12:03:42.222Z,17.00
2018-02-02T12:06:11.325Z,20.40
2018-02-02T12:08:40.140Z,17.70
2018-02-02T12:11:08.982Z,20.10
2018-02-02T12:13:42.849Z,13.20
2018-02-02T12:16:11.700Z,17.47
2018-02-02T12:18:40.907Z,18.10
2018-02-02T12:21:09.821Z,12.77
2018-02-02T12:23:41.290Z,16.33
2018-02-02T12:26:16.005Z,12.20
2018-02-02T12:28:44.915Z,13.80
2018-02-02T12:31:37.669Z,16.03
2018-02-02T12:34:06.552Z,11.03
2018-02-02T12:36:38.201Z,14.00
2018-02-02T12:39:07.094Z,19.70
2018-02-02T12:41:36.040Z,21.60
2018-02-02T12:44:05.352Z,16.53
2018-02-02T12:46:35.443Z,14.97
2018-02-02T12:49:07.329Z,15.33
2018-02-02T12:51:36.245Z,17.23
2018-02-02T12:54:05.156Z,14.30
2018-02-02T12:56:34.912Z,17.17
2018-02-02T12:59:03.830Z,15.20
2018-02-02T13:01:32.688Z,15.10
2018-02-02T13:04:01.534Z,17.30
2018-02-02T13:06:30.363Z,16.63
2018-02-02T13:08:59.186Z,14.47
2018-02-02T13:11:33.438Z,15.03
2018-02-02T13:14:02.267Z,13.93
2018-02-02T13:16:31.108Z,12.37
2018-02-02T13:18:59.996Z,15.07
2018-02-02T13:21:28.817Z,16.20
2018-02-02T13:23:57.996Z,15.73
2018-02-02T13:26:26.875Z,20.60
2018-02-02T13:28:55.729Z,18.17
2018-02-02T13:31:24.617Z,13.23
2018-02-02T13:33:53.695Z,16.07
2018-02-02T13:36:22.555Z,17.50
2018-02-02T13:38:51.406Z,13.50
2018-02-02T13:41:20.261Z,17.13
2018-02-02T13:43:49.177Z,20.33
2018-02-02T13:46:18.061Z,18.63
2018-02-02T13:48:46.937Z,20.30
2018-02-02T13:51:15.792Z,16.57
2018-02-02T13:53:45.610Z,20.10
2018-02-02T13:56:15.570Z,20.80
2018-02-02T13:58:46.410Z,13.73
2018-02-02T14:01:16.074Z,17.17
2018-02-02T14:03:46.711Z,18.50
2018-02-02T14:06:15.550Z,15.80
2018-02-02T14:08:44.472Z,18.83
2018-02-02T14:11:13.381Z,19.37
2018-02-02T14:13:42.369Z,17.50
2018-02-02T14:16:11.368Z,20.27
2018-02-02T14:18:40.317Z,17.90
2018-02-02T14:21:09.224Z,19.57
2018-02-02T14:23:38.107Z,15.33
2018-02-02T14:26:09.513Z,20.07
2018-02-02T14:28:38.354Z,16.80
2018-02-02T14:31:07.208Z,20.33
2018-02-02T14:33:36.143Z,19.30
2018-02-02T14:36:05.234Z,19.70
2018-02-02T14:38:34.088Z,21.60
2018-02-02T14:41:04.589Z,21.70
2018-02-02T14:43:33.505Z,22.43
2018-02-02T14:46:02.408Z,18.00
2018-02-02T14:48:31.321Z,26.13
2018-02-02T14:51:00.411Z,16.07
2018-02-02T14:53:29.306Z,21.73
2018-02-02T14:56:00.743Z,22.90
2018-02-02T14:58:29.576Z,22.73
2018-02-02T15:00:58.391Z,23.47
2018-02-02T15:03:29.387Z,25.10
2018-02-02T15:05:58.460Z,33.60
2018-02-02T15:08:29.052Z,24.00
2018-02-02T15:11:01.138Z,29.40
2018-02-02T15:13:30.157Z,26.10
2018-02-02T15:15:59.183Z,26.80
2018-02-02T15:18:30.846Z,24.80
2018-02-02T15:21:01.445Z,23.80
2018-02-02T15:23:30.741Z,30.83
2018-02-02T15:26:00.040Z,27.17
2018-02-02T15:28:29.199Z,24.90
2018-02-02T15:30:58.949Z,32.47
2018-02-02T15:33:28.920Z,30.80
2018-02-02T15:35:59.874Z,41.70
2018-02-02T15:38:34.863Z,28.27
2018-02-02T15:41:04.744Z,28.93
2018-02-02T15:43:37.333Z,28.37
2018-02-02T15:46:06.545Z,26.33
2018-02-02T15:48:36.841Z,24.40
2018-02-02T15:51:06.907Z,26.50
2018-02-02T15:53:35.867Z,27.47
2018-02-02T15:56:05.867Z,21.80
2018-02-02T15:58:36.058Z,22.37
2018-02-02T16:01:05.202Z,32.80
2018-02-02T16:03:34.350Z,28.80
2018-02-02T16:06:06.572Z,20.40
2018-02-02T16:08:36.189Z,26.87
2018-02-02T16:11:05.313Z,20.70
2018-02-02T16:13:37.914Z,25.43
2018-02-02T16:16:07.878Z,29.83
2018-02-02T16:18:37.071Z,22.53
2018-02-02T16:21:08.618Z,23.60
2018-02-02T16:23:39.496Z,24.93
2018-02-02T16:26:08.588Z,28.13
2018-02-02T16:28:40.370Z,29.30
2018-02-02T16:31:09.861Z,27.80
2018-02-02T16:33:38.912Z,26.37
2018-02-02T16:36:10.250Z,25.67
2018-02-02T16:38:39.410Z,26.80
2018-02-02T16:41:09.164Z,27.03
2018-02-02T16:43:39.234Z,38.33
2018-02-02T16:46:08.410Z,32.73
2018-02-02T16:48:38.416Z,29.73
2018-02-02T16:51:12.633Z,25.93
2018-02-02T16:53:41.771Z,22.20
2018-02-02T16:56:11.662Z,24.93
2018-02-02T16:58:43.410Z,24.80
2018-02-02T17:01:12.784Z,23.40
2018-02-02T17:03:42.715Z,33.27
2018-02-02T17:06:12.227Z,25.87
2018-02-02T17:08:42.376Z,24.17
2018-02-02T17:11:12.831Z,27.23
2018-02-02T17:13:43.175Z,22.23
2018-02-02T17:16:12.535Z,21.87
2018-02-02T17:18:42.770Z,25.00
2018-02-02T17:21:12.597Z,23.97
2018-02-02T17:23:42.723Z,27.07
2018-02-02T17:26:11.902Z,24.00
2018-02-02T17:28:41.576Z,24.40
2018-02-02T17:31:11.577Z,22.27
2018-02-02T17:33:41.898Z,27.97
2018-02-02T17:36:12.207Z,24.60
2018-02-02T17:38:42.989Z,28.70
2018-02-02T17:41:13.111Z,22.60
2018-02-02T17:43:46.931Z,24.83
2018-02-02T17:46:16.211Z,24.73
2018-02-02T17:48:45.693Z,27.80
2018-02-02T17:51:15.721Z,26.20
2018-02-02T17:53:44.956Z,23.20
2018-02-02T17:56:14.117Z,26.87
2018-02-02T17:58:44.332Z,17.90
2018-02-02T18:04:22.187Z,29.60
2018-02-02T18:06:51.265Z,21.90
2018-02-02T18:09:21.304Z,26.13
2018-02-02T18:11:51.406Z,19.43
2018-02-02T18:14:20.594Z,25.97
2018-02-02T18:16:50.924Z,22.10
2018-02-02T18:19:25.756Z,18.23
2018-02-02T18:21:55.112Z,21.33
2018-02-02T18:24:26.219Z,20.43
2018-02-02T18:26:56.357Z,22.60
2018-02-02T18:29:25.742Z,17.70
2018-02-02T18:31:55.336Z,21.27
2018-02-02T18:34:27.968Z,20.00
2018-02-02T18:36:57.917Z,17.37
2018-02-02T18:39:28.054Z,23.57
2018-02-02T18:41:59.025Z,26.10
2018-02-02T18:44:28.397Z,19.37
2018-02-02T18:46:57.634Z,17.83
2018-02-02T18:49:29.396Z,18.13
2018-02-02T18:51:58.639Z,18.23
2018-02-02T18:54:28.568Z,22.43
2018-02-02T18:56:58.074Z,19.80
2018-02-02T18:59:27.463Z,19.20
2018-02-02T19:01:57.408Z,18.23
2018-02-02T19:04:27.622Z,19.90
2018-02-02T19:06:56.997Z,17.87
2018-02-02T19:09:26.523Z,17.97
2018-02-02T19:11:56.802Z,24.30
2018-02-02T19:14:26.867Z,16.33
2018-02-02T19:16:56.968Z,16.43
2018-02-02T19:19:26.875Z,18.40
2018-02-02T19:21:57.786Z,17.10
2018-02-02T19:24:33.752Z,20.83
2018-02-02T19:27:04.516Z,21.10
2018-02-02T19:29:34.890Z,23.40
2018-02-02T19:32:04.066Z,22.03
2018-02-02T19:34:33.445Z,21.10
2018-02-02T19:37:02.923Z,18.93
2018-02-02T19:39:33.391Z,23.80
2018-02-02T19:42:03.198Z,29.00
2018-02-02T19:44:34.354Z,22.47
2018-02-02T19:47:04.653Z,23.90
2018-02-02T19:49:33.949Z,20.63
2018-02-02T19:52:03.384Z,18.80
2018-02-02T19:54:33.252Z,26.23
2018-02-02T19:57:06.086Z,29.07
2018-02-02T19:59:36.105Z,18.03
2018-02-02T20:02:07.217Z,16.33
2018-02-02T20:04:36.547Z,15.27
2018-02-02T20:07:06.856Z,15.80
2018-02-02T20:09:37.236Z,16.50
2018-02-02T20:12:10.299Z,17.77
2018-02-02T20:14:40.617Z,14.70
2018-02-02T20:17:11.531Z,29.20
2018-02-02T20:19:41.837Z,16.27
2018-02-02T20:22:11.398Z,17.00
2018-02-02T20:24:42.952Z,13.67
2018-02-02T20:27:12.732Z,13.03
2018-02-02T20:29:41.779Z,13.43
2018-02-02T20:32:13.467Z,12.97
2018-02-02T20:34:42.417Z,12.97
2018-02-02T20:37:13.780Z,16.90
2018-02-02T20:39:43.326Z,12.93
2018-02-02T20:42:14.093Z,10.00
2018-02-02T20:44:45.928Z,11.97
2018-02-02T20:47:15.242Z,10.97
2018-02-02T20:49:44.653Z,16.90
2018-02-02T20:52:14.733Z,16.53
2018-02-02T20:54:44.181Z,12.67
2018-02-02T20:57:13.821Z,15.97
2018-02-02T20:59:43.267Z,12.73
2018-02-02T21:02:12.669Z,12.77
2018-02-02T21:04:42.126Z,14.47
2018-02-02T21:07:13.923Z,12.43
2018-02-02T21:09:44.784Z,11.47
2018-02-02T21:12:14.206Z,10.07
2018-02-02T21:14:44.426Z,15.50
2018-02-02T21:17:13.495Z,14.60
2018-02-02T21:19:43.665Z,13.20
2018-02-02T21:22:13.211Z,11.27
2018-02-02T21:24:42.342Z,10.80
2018-02-02T21:27:14.200Z,17.70
2018-02-02T21:29:44.197Z,10.20
2018-02-02T21:32:13.626Z,10.33
2018-02-02T21:34:43.670Z,16.90
2018-02-02T21:37:12.805Z,12.00
2018-02-02T21:39:42.035Z,12.07
2018-02-02T21:42:13.271Z,12.17
2018-02-02T21:44:44.327Z,14.87
2018-02-02T21:47:13.480Z,17.23
2018-02-02T21:49:44.445Z,12.13
2018-02-02T21:52:13.652Z,9.50
2018-02-02T21:54:45.585Z,15.33
2018-02-02T21:57:14.900Z,13.73
2018-02-02T21:59:44.664Z,19.13
2018-02-02T22:02:13.755Z,11.30
2018-02-02T22:04:42.988Z,17.13
2018-02-02T22:07:11.969Z,19.47
2018-02-02T22:09:41.455Z,10.37
2018-02-02T22:12:10.530Z,12.53
2018-02-02T22:14:40.037Z,16.43
2018-02-02T22:17:10.194Z,12.60
2018-02-02T22:19:39.297Z,10.50
2018-02-02T22:22:08.258Z,15.97
2018-02-02T22:24:38.900Z,13.33
2018-02-02T22:27:08.214Z,13.40
2018-02-02T22:29:37.528Z,12.47
2018-02-02T22:32:07.657Z,12.93
2018-02-02T22:34:37.659Z,13.17
2018-02-02T22:37:07.107Z,13.63
2018-02-02T22:39:36.952Z,11.47
2018-02-02T22:42:07.774Z,12.57
2018-02-02T22:44:40.098Z,14.47
2018-02-02T22:47:09.018Z,10.20
2018-02-02T22:49:39.153Z,11.67
2018-02-02T22:52:11.729Z,13.27
2018-02-02T22:54:40.737Z,16.10
2018-02-02T22:57:09.718Z,10.40
2018-02-02T22:59:41.076Z,10.73
2018-02-02T23:02:11.501Z,11.00
2018-02-02T23:04:40.702Z,12.37
2018-02-02T23:07:10.616Z,9.83
2018-02-02T23:09:39.531Z,11.30
2018-02-02T23:12:08.502Z,16.47
2018-02-02T23:14:38.446Z,8.03
2018-02-02T23:17:08.636Z,12.80
2018-02-02T23:19:37.561Z,13.50
2018-02-02T23:22:08.322Z,13.20
2018-02-02T23:24:38.288Z,10.13
2018-02-02T23:27:08.517Z,9.93
2018-02-02T23:29:41.192Z,14.53
2018-02-02T23:32:11.512Z,11.43
2018-02-02T23:34:42.206Z,14.57
2018-02-02T23:37:12.468Z,13.37
2018-02-02T23:39:42.253Z,11.83
2018-02-02T23:42:11.275Z,9.53
2018-02-02T23:44:43.564Z,12.10
2018-02-02T23:47:17.556Z,11.13
2018-02-02T23:49:47.508Z,10.87
2018-02-02T23:52:17.655Z,10.40
2018-02-02T23:54:47.555Z,8.63
2018-02-02T23:57:16.733Z,9.07
2018-02-02T23:59:46.404Z,12.30
